Time;durP1;ratioP1;P1;durP2;ratioP2;P2;SDS_P1;SDS_P2;PMS_P1;PMS_P2;Temp;Humidity;BMP_temperature;BMP_pressure;BME280_temperature;BME280_humidity;BME280_pressure;Samples;Min_cycle;Max_cycle;Signal;HPM_P1;HPM_P2
2022/04/07 00:01:55;;;;;;;;;;;9.40;99.90;;;7.85;100.00;99038.28;2569826;30;137202;-40
2022/04/07 00:04:23;;;;;;;;;;;9.40;99.90;;;7.76;100.00;99037.00;2570995;30;138361;-40
2022/04/07 00:06:51;;;;;;;;;;;9.30;99.90;;;7.70;100.00;99046.91;2567493;30;136704;-40
2022/04/07 00:09:18;;;;;;;;;;;9.20;99.90;;;7.69;100.00;99031.69;2568381;30;139302;-41
2022/04/07 00:11:45;;;;;;;;;;;9.30;99.90;;;7.65;100.00;99035.09;2569975;30;136956;-40
2022/04/07 00:14:13;;;;;;;;;;;9.20;99.90;;;7.62;100.00;99031.81;2568731;30;138267;-40
2022/04/07 00:16:41;;;;;;;;;;;9.20;99.90;;;7.68;100.00;99034.63;2571327;30;137217;-40
2022/04/07 00:19:13;;;;;;;;;;;9.20;99.90;;;7.60;100.00;99030.41;2570162;30;139069;-40
2022/04/07 00:21:42;;;;;;;;;;;9.10;99.90;;;7.59;100.00;99029.56;2569537;30;137933;-41
2022/04/07 00:24:09;;;;;;;;;;;9.10;99.90;;;7.56;100.00;99021.91;2570719;30;138392;-41
2022/04/07 00:26:37;;;;;;;;;;;9.10;99.90;;;7.53;100.00;99019.66;2567366;30;138358;-41
2022/04/07 00:29:04;;;;;;;;;;;9.10;99.90;;;7.55;100.00;99014.81;2569100;30;137545;-41
2022/04/07 00:31:39;;;;;;;;;;;9.10;99.90;;;7.57;100.00;99007.25;2569659;30;137308;-41
2022/04/07 00:34:08;;;;;;;;;;;9.10;99.90;;;7.44;100.00;98989.34;2569871;30;139097;-41
2022/04/07 00:36:36;;;;;;;;;;;9.10;99.90;;;7.55;100.00;99001.25;2570420;30;136954;-40
2022/04/07 00:39:04;;;;;;;;;;;9.10;99.90;;;7.41;100.00;98987.09;2571137;30;137164;-41
2022/04/07 00:41:31;;;;;;;;;;;9.00;99.90;;;7.55;100.00;98982.25;2570756;30;137637;-40
2022/04/07 00:43:59;;;;;;;;;;;9.00;99.90;;;7.49;100.00;98989.44;2566424;30;137839;-40
2022/04/07 00:46:26;;;;;;;;;;;9.10;99.90;;;7.54;100.00;98985.19;2569351;30;136941;-41
2022/04/07 00:48:53;;;;;;;;;;;9.00;99.90;;;7.52;100.00;98976.47;2569736;30;138183;-42
2022/04/07 00:51:21;;;;;;;;;;;9.10;99.90;;;7.53;100.00;98968.09;2568243;30;137173;-40
2022/04/07 00:53:48;;;;;;;;;;;9.10;99.90;;;7.60;100.00;98959.84;2571302;30;138208;-41
2022/04/07 00:56:16;;;;;;;;;;;9.10;99.90;;;7.58;100.00;98951.94;2568552;30;137263;-40
2022/04/07 00:58:47;;;;;;;;;;;9.10;99.90;;;7.66;100.00;98960.75;2568066;30;138013;-40
2022/04/07 01:01:20;;;;;;;;;;;9.20;99.90;;;7.69;100.00;98952.13;2571960;30;137145;-40
2022/04/07 01:03:49;;;;;;;;;;;9.20;99.90;;;7.65;100.00;98954.50;2566703;30;137778;-41
2022/04/07 01:06:19;;;;;;;;;;;9.20;99.90;;;7.84;100.00;98957.88;2568174;30;138060;-40
2022/04/07 01:08:46;;;;;;;;;;;9.30;99.90;;;7.80;100.00;98947.75;2570050;30;138357;-41
2022/04/07 01:11:14;;;;;;;;;;;9.30;99.90;;;7.86;100.00;98941.38;2566970;30;137297;-40
2022/04/07 01:13:47;;;;;;;;;;;9.30;99.90;;;7.85;100.00;98937.81;2569185;30;138278;-41
2022/04/07 01:16:14;;;;;;;;;;;9.40;99.90;;;7.77;100.00;98924.63;2569565;30;137103;-40
2022/04/07 01:18:44;;;;;;;;;;;9.30;99.90;;;7.88;100.00;98921.03;2570880;30;138522;-42
2022/04/07 01:21:19;;;;;;;;;;;9.40;99.90;;;7.92;100.00;98922.19;2569114;30;137490;-40
2022/04/07 01:24:06;;;;;;;;;;;9.40;99.90;;;7.88;100.00;98915.59;2567214;30;138055;-41
2022/04/07 01:26:44;;;;;;;;;;;9.40;99.90;;;7.89;100.00;98900.16;2571177;30;137891;-40
2022/04/07 01:29:15;;;;;;;;;;;9.40;99.90;;;7.91;100.00;98906.16;2569366;30;137256;-41
2022/04/07 01:31:43;;;;;;;;;;;9.40;99.90;;;7.92;100.00;98905.91;2566156;38;137107;-41
2022/04/07 01:34:15;;;;;;;;;;;9.40;99.90;;;7.96;100.00;98908.16;2570130;30;138339;-42
2022/04/07 01:39:03;;;;;;;;;;;9.40;99.90;;;7.93;100.00;98898.59;2566582;30;154900;-39
2022/04/07 01:41:31;;;;;;;;;;;9.50;99.90;;;7.88;100.00;98896.59;2567622;30;138963;-39
2022/04/07 01:43:59;;;;;;;;;;;9.40;99.90;;;7.96;100.00;98889.16;2567786;30;138188;-39
2022/04/07 01:46:29;;;;;;;;;;;9.50;99.90;;;8.02;100.00;98893.63;2568666;30;138444;-39
2022/04/07 01:48:58;;;;;;;;;;;9.50;99.90;;;8.05;100.00;98891.22;2568646;30;136979;-40
2022/04/07 01:51:27;;;;;;;;;;;9.50;99.90;;;8.07;100.00;98880.13;2567628;30;138475;-39
2022/04/07 01:53:56;;;;;;;;;;;9.50;99.90;;;8.10;100.00;98879.63;2568378;30;137152;-40
2022/04/07 01:56:24;;;;;;;;;;;9.60;99.90;;;8.04;100.00;98869.75;2568530;30;139176;-40
2022/04/07 01:58:53;;;;;;;;;;;9.50;99.90;;;8.08;100.00;98873.63;2567196;30;136888;-39
2022/04/07 02:01:21;;;;;;;;;;;9.60;99.90;;;8.07;100.00;98870.06;2565813;30;138226;-40
2022/04/07 02:03:48;;;;;;;;;;;9.60;99.90;;;8.21;100.00;98864.34;2567070;30;137568;-39
2022/04/07 02:06:19;;;;;;;;;;;9.70;99.90;;;8.22;100.00;98863.28;2568233;30;139232;-40
2022/04/07 02:08:46;;;;;;;;;;;9.70;99.90;;;8.24;100.00;98861.13;2568341;30;136947;-39
2022/04/07 02:11:14;;;;;;;;;;;9.70;99.90;;;8.26;100.00;98860.91;2567614;30;139553;-40
2022/04/07 02:13:42;;;;;;;;;;;9.70;99.90;;;8.24;100.00;98849.44;2568968;30;136781;-40
2022/04/07 02:16:10;;;;;;;;;;;9.70;99.90;;;8.27;100.00;98847.06;2569480;30;138622;-39
2022/04/07 02:18:39;;;;;;;;;;;9.70;99.90;;;8.25;100.00;98840.22;2568661;30;136965;-39
2022/04/07 02:21:07;;;;;;;;;;;9.70;99.90;;;8.28;100.00;98843.25;2567763;30;138497;-40
2022/04/07 02:23:41;;;;;;;;;;;9.80;99.90;;;8.32;100.00;98849.03;2566513;30;137110;-40
2022/04/07 02:26:14;;;;;;;;;;;9.80;99.90;;;8.37;100.00;98832.81;2568167;30;138429;-39
2022/04/07 02:28:42;;;;;;;;;;;9.80;99.90;;;8.39;100.00;98838.81;2569090;30;137904;-39
2022/04/07 02:31:13;;;;;;;;;;;9.80;99.90;;;8.36;100.00;98833.88;2567446;30;138372;-39
2022/04/07 02:33:41;;;;;;;;;;;9.80;99.90;;;8.31;100.00;98821.03;2566181;30;137142;-40
2022/04/07 02:36:09;;;;;;;;;;;9.80;99.90;;;8.31;100.00;98823.75;2569528;30;139260;-39
2022/04/07 02:38:37;;;;;;;;;;;9.80;99.90;;;8.33;100.00;98818.09;2567902;30;137320;-40
2022/04/07 02:41:04;;;;;;;;;;;9.80;99.90;;;8.30;100.00;98810.44;2567029;30;139153;-40
2022/04/07 02:43:32;;;;;;;;;;;9.80;99.90;;;8.26;100.00;98806.56;2568179;30;137116;-40
2022/04/07 02:45:59;;;;;;;;;;;9.80;99.90;;;8.24;100.00;98787.78;2568305;30;136904;-39
2022/04/07 02:48:27;;;;;;;;;;;9.80;99.90;;;8.26;100.00;98790.25;2569324;30;136946;-40
2022/04/07 02:50:54;;;;;;;;;;;9.70;99.90;;;8.27;100.00;98786.47;2569270;30;137399;-39
2022/04/07 02:53:22;;;;;;;;;;;9.80;99.90;;;8.26;100.00;98769.34;2567838;30;136642;-40
2022/04/07 02:55:49;;;;;;;;;;;9.80;99.90;;;8.23;100.00;98758.16;2567877;30;138351;-39
2022/04/07 02:58:16;;;;;;;;;;;9.70;99.90;;;8.21;100.00;98750.25;2567225;30;137612;-40
2022/04/07 03:00:44;;;;;;;;;;;9.70;99.90;;;8.19;100.00;98734.19;2568834;30;138978;-40
2022/04/07 03:03:11;;;;;;;;;;;9.70;99.90;;;8.21;100.00;98732.03;2567361;30;138059;-40
2022/04/07 03:05:39;;;;;;;;;;;9.70;99.90;;;8.22;100.00;98741.03;2568810;30;138420;-39
2022/04/07 03:08:06;;;;;;;;;;;9.70;99.90;;;8.19;100.00;98738.81;2568980;30;138010;-39
2022/04/07 03:10:34;;;;;;;;;;;9.70;99.90;;;8.22;100.00;98746.44;2569068;30;138477;-40
2022/04/07 03:13:01;;;;;;;;;;;9.70;99.90;;;8.23;100.00;98733.72;2567908;30;136907;-40
2022/04/07 03:15:29;;;;;;;;;;;9.70;99.90;;;8.23;100.00;98725.56;2567767;30;137775;-40
2022/04/07 03:17:56;;;;;;;;;;;9.70;99.90;;;8.23;100.00;98720.13;2569015;30;137453;-39
2022/04/07 03:20:24;;;;;;;;;;;9.70;99.90;;;8.25;100.00;98707.13;2569171;30;137177;-39
2022/04/07 03:22:51;;;;;;;;;;;9.70;99.90;;;8.30;100.00;98704.47;2566808;30;137336;-39
2022/04/07 03:25:18;;;;;;;;;;;9.70;99.90;;;8.32;100.00;98694.16;2567634;30;138251;-39
2022/04/07 03:27:46;;;;;;;;;;;9.80;99.90;;;8.35;100.00;98686.34;2568640;30;137122;-39
2022/04/07 03:30:13;;;;;;;;;;;9.80;99.90;;;8.41;100.00;98689.94;2568845;30;139574;-40
2022/04/07 03:32:41;;;;;;;;;;;9.80;99.90;;;8.40;100.00;98685.59;2566726;30;137166;-39
2022/04/07 03:35:08;;;;;;;;;;;9.90;99.90;;;8.51;100.00;98680.34;2568672;30;137146;-40
2022/04/07 03:37:35;;;;;;;;;;;9.90;99.90;;;8.49;100.00;98678.69;2567671;30;137400;-39
2022/04/07 03:40:03;;;;;;;;;;;9.90;99.90;;;8.45;100.00;98673.97;2567273;30;138332;-40
2022/04/07 03:42:31;;;;;;;;;;;9.90;99.90;;;8.51;98.82;98680.34;2566966;30;137186;-39
2022/04/07 03:44:59;;;;;;;;;;;10.00;99.90;;;8.50;98.80;98676.78;2568482;30;138136;-40
2022/04/07 03:47:26;;;;;;;;;;;9.90;99.90;;;8.51;99.11;98664.03;2567618;30;137613;-40
2022/04/07 03:49:54;;;;;;;;;;;10.00;99.90;;;8.48;98.69;98663.41;2569508;30;139429;-40
2022/04/07 03:52:21;;;;;;;;;;;10.00;99.90;;;8.47;98.19;98672.63;2569185;30;137455;-40
2022/04/07 03:54:49;;;;;;;;;;;9.90;99.90;;;8.56;98.25;98661.38;2569050;30;138323;-39
2022/04/07 03:57:16;;;;;;;;;;;10.00;99.90;;;8.56;98.34;98653.22;2569396;30;137220;-39
2022/04/07 03:59:44;;;;;;;;;;;10.00;99.90;;;8.55;97.67;98646.13;2566453;30;138976;-39
2022/04/07 04:02:12;;;;;;;;;;;10.00;99.90;;;8.58;96.92;98641.00;2568340;30;136794;-39
2022/04/07 04:04:42;;;;;;;;;;;10.00;99.90;;;8.59;98.28;98641.84;2568603;30;138189;-40
2022/04/07 04:07:10;;;;;;;;;;;10.10;99.90;;;8.57;98.33;98627.69;2569135;30;137845;-39
2022/04/07 04:09:38;;;;;;;;;;;10.10;99.90;;;8.54;98.15;98634.44;2568548;30;137092;-40
2022/04/07 04:12:06;;;;;;;;;;;10.00;99.90;;;8.57;98.06;98627.69;2568214;30;137292;-40
2022/04/07 04:14:33;;;;;;;;;;;10.00;99.90;;;8.52;99.24;98612.13;2567164;30;139019;-40
2022/04/07 04:17:00;;;;;;;;;;;10.00;99.90;;;8.48;99.95;98608.25;2569241;30;137293;-40
2022/04/07 04:19:28;;;;;;;;;;;10.00;99.90;;;8.51;100.00;98606.97;2566990;30;139186;-40
2022/04/07 04:21:56;;;;;;;;;;;10.00;99.90;;;8.49;100.00;98596.28;2568977;30;137886;-40
2022/04/07 04:24:23;;;;;;;;;;;9.90;99.90;;;8.48;100.00;98597.38;2567937;30;139119;-39
2022/04/07 04:27:09;;;;;;;;;;;10.00;99.90;;;8.54;100.00;98590.13;2568137;30;136821;-39
2022/04/07 04:29:36;;;;;;;;;;;10.00;99.90;;;8.51;100.00;98585.22;2568750;30;139306;-39
2022/04/07 04:32:04;;;;;;;;;;;10.00;99.90;;;8.52;100.00;98587.66;2568272;30;137169;-39
2022/04/07 04:34:32;;;;;;;;;;;10.00;99.90;;;8.51;100.00;98587.94;2569165;30;138270;-40
2022/04/07 04:36:59;;;;;;;;;;;10.00;99.90;;;8.43;100.00;98583.72;2567853;30;137174;-39
2022/04/07 04:39:35;;;;;;;;;;;9.90;99.90;;;8.37;100.00;98579.31;2568800;30;139230;-39
2022/04/07 04:42:04;;;;;;;;;;;9.90;99.90;;;8.30;100.00;98568.63;2568826;30;136916;-39
2022/04/07 04:44:32;;;;;;;;;;;9.80;99.90;;;8.32;100.00;98548.25;2567774;30;136993;-39
2022/04/07 04:46:59;;;;;;;;;;;9.80;99.90;;;8.29;100.00;98553.41;2567728;30;137248;-40
2022/04/07 04:49:27;;;;;;;;;;;9.80;99.90;;;8.25;100.00;98546.84;2567750;30;137790;-39
2022/04/07 04:51:54;;;;;;;;;;;9.70;99.90;;;8.25;100.00;98536.78;2566338;30;137412;-39
2022/04/07 04:54:21;;;;;;;;;;;9.70;99.90;;;8.25;100.00;98527.81;2568370;30;138366;-40
2022/04/07 04:56:49;;;;;;;;;;;9.70;99.90;;;8.24;100.00;98528.91;2568859;30;137054;-40
2022/04/07 04:59:16;;;;;;;;;;;9.70;99.90;;;8.16;100.00;98514.66;2568232;30;137311;-40
2022/04/07 05:01:44;;;;;;;;;;;9.70;99.90;;;8.16;100.00;98503.78;2566859;30;137007;-39
2022/04/07 05:04:11;;;;;;;;;;;9.70;99.90;;;8.06;100.00;98498.25;2568307;30;139196;-39
2022/04/07 05:06:39;;;;;;;;;;;9.60;99.90;;;8.12;100.00;98480.13;2565103;30;137417;-39
2022/04/07 05:09:06;;;;;;;;;;;9.60;99.90;;;8.12;100.00;98470.06;2567996;30;138538;-40
2022/04/07 05:11:34;;;;;;;;;;;9.60;99.90;;;8.15;100.00;98468.75;2567985;30;136663;-39
2022/04/07 05:14:02;;;;;;;;;;;9.60;99.90;;;8.16;100.00;98457.63;2568361;30;139244;-39
2022/04/07 05:16:29;;;;;;;;;;;9.60;99.90;;;8.20;100.00;98456.03;2567887;30;137407;-39
2022/04/07 05:18:57;;;;;;;;;;;9.70;99.90;;;8.21;100.00;98457.69;2566191;30;138821;-39
2022/04/07 05:21:24;;;;;;;;;;;9.70;99.90;;;8.20;100.00;98452.50;2568031;30;137021;-40
2022/04/07 05:23:52;;;;;;;;;;;9.70;99.90;;;8.19;100.00;98451.69;2568955;30;137482;-39
2022/04/07 05:26:19;;;;;;;;;;;9.70;99.90;;;8.23;100.00;98454.72;2568796;30;137016;-40
2022/04/07 05:28:47;;;;;;;;;;;9.70;99.90;;;8.30;100.00;98449.09;2566959;30;139223;-39
2022/04/07 05:31:14;;;;;;;;;;;9.70;99.90;;;8.33;100.00;98451.28;2568130;30;137265;-40
2022/04/07 05:33:41;;;;;;;;;;;9.80;99.90;;;8.33;100.00;98445.84;2568600;30;139118;-40
2022/04/07 05:36:09;;;;;;;;;;;9.80;99.90;;;8.36;100.00;98439.91;2569224;30;137084;-40
2022/04/07 05:38:37;;;;;;;;;;;9.80;99.90;;;8.45;100.00;98427.50;2566372;30;138242;-39
2022/04/07 05:41:04;;;;;;;;;;;9.90;99.90;;;8.45;100.00;98424.78;2569097;30;137043;-39
2022/04/07 05:43:32;;;;;;;;;;;9.90;99.90;;;8.51;100.00;98403.13;2566355;30;137756;-39
2022/04/07 05:46:01;;;;;;;;;;;9.90;99.90;;;8.52;100.00;98407.50;2567828;30;137471;-39
2022/04/07 05:48:29;;;;;;;;;;;10.00;99.90;;;8.54;100.00;98410.75;2567335;30;139140;-40
2022/04/07 05:50:56;;;;;;;;;;;10.00;99.90;;;8.59;100.00;98419.75;2565928;30;137267;-40
2022/04/07 05:53:23;;;;;;;;;;;10.00;99.90;;;8.60;100.00;98404.28;2568840;30;137078;-39
2022/04/07 05:55:51;;;;;;;;;;;10.10;99.90;;;8.68;100.00;98390.22;2568120;30;136714;-39
2022/04/07 05:58:19;;;;;;;;;;;10.10;99.90;;;8.66;100.00;98376.06;2565998;30;137700;-39
2022/04/07 06:00:46;;;;;;;;;;;10.10;99.90;;;8.68;100.00;98383.97;2568278;30;137218;-39
2022/04/07 06:03:14;;;;;;;;;;;10.10;99.90;;;8.62;100.00;98369.50;2567462;30;137722;-39
2022/04/07 06:05:41;;;;;;;;;;;10.10;99.90;;;8.57;100.00;98378.44;2568525;30;137253;-40
2022/04/07 06:08:08;;;;;;;;;;;10.10;99.90;;;8.56;100.00;98376.00;2568204;30;140731;-39
2022/04/07 06:10:36;;;;;;;;;;;10.10;99.90;;;8.55;100.00;98377.88;2567272;30;136964;-39
2022/04/07 06:13:03;;;;;;;;;;;10.10;99.90;;;8.54;100.00;98378.97;2568091;30;137476;-39
2022/04/07 06:15:32;;;;;;;;;;;10.10;99.90;;;8.53;100.00;98384.66;2568243;30;136986;-39
2022/04/07 06:17:59;;;;;;;;;;;10.00;99.90;;;8.47;100.00;98368.25;2566019;30;138790;-39
2022/04/07 06:20:27;;;;;;;;;;;10.00;99.90;;;8.44;100.00;98352.47;2568806;30;137237;-39
2022/04/07 06:22:54;;;;;;;;;;;9.90;99.90;;;8.42;100.00;98334.81;2568865;30;138593;-39
2022/04/07 06:25:22;;;;;;;;;;;9.90;99.90;;;8.37;100.00;98338.31;2568144;30;136674;-39
2022/04/07 06:27:49;;;;;;;;;;;9.90;99.90;;;8.39;100.00;98317.13;2567824;30;139196;-40
2022/04/07 06:30:20;;;;;;;;;;;9.90;99.90;;;8.36;100.00;98323.06;2567102;30;138187;-39
2022/04/07 06:32:49;;;;;;;;;;;9.90;99.90;;;8.36;100.00;98309.50;2568137;30;138997;-39
2022/04/07 06:35:17;;;;;;;;;;;9.90;99.90;;;8.35;100.00;98299.72;2567743;30;137108;-39
2022/04/07 06:38:02;;;;;;;;;;;9.80;99.90;;;8.36;100.00;98285.03;2567805;30;138434;-39
2022/04/07 06:40:30;;;;;;;;;;;9.80;99.90;;;8.39;100.00;98287.25;2568438;30;136757;-39
2022/04/07 06:42:59;;;;;;;;;;;9.90;99.90;;;8.47;100.00;98275.06;2568171;30;137363;-39
2022/04/07 06:45:28;;;;;;;;;;;9.90;99.90;;;8.48;100.00;98261.22;2568540;30;138007;-39
2022/04/07 06:47:56;;;;;;;;;;;9.90;99.90;;;8.49;100.00;98251.16;2563675;30;138249;-39
2022/04/07 06:50:25;;;;;;;;;;;9.90;99.90;;;8.52;100.00;98253.41;2564500;30;137969;-39
2022/04/07 06:52:54;;;;;;;;;;;10.00;99.90;;;8.51;100.00;98249.03;2565792;30;138586;-39
2022/04/07 06:55:23;;;;;;;;;;;10.00;99.90;;;8.54;100.00;98234.94;2567973;30;137712;-40
2022/04/07 06:57:54;;;;;;;;;;;10.00;99.90;;;8.57;100.00;98220.00;2567905;30;137483;-40
2022/04/07 07:00:24;;;;;;;;;;;10.00;99.90;;;8.62;100.00;98209.16;2568537;30;137780;-40
2022/04/07 07:02:53;;;;;;;;;;;10.10;99.90;;;8.67;100.00;98201.03;2568856;30;138725;-40
2022/04/07 07:05:22;;;;;;;;;;;10.10;99.90;;;8.68;100.00;98191.78;2569090;30;136776;-39
2022/04/07 07:07:50;;;;;;;;;;;10.10;99.90;;;8.74;100.00;98187.19;2568371;30;137877;-40
2022/04/07 07:10:29;;;;;;;;;;;10.20;99.90;;;8.79;100.00;98162.75;2568040;30;136790;-40
2022/04/07 07:12:59;;;;;;;;;;;10.20;99.90;;;8.80;100.00;98164.38;2565777;30;139182;-39
2022/04/07 07:15:27;;;;;;;;;;;10.20;99.90;;;8.76;100.00;98160.56;2568449;30;137430;-40
2022/04/07 07:17:55;;;;;;;;;;;10.20;99.90;;;8.79;100.00;98146.44;2568582;30;137365;-39
2022/04/07 07:20:22;;;;;;;;;;;10.20;99.90;;;8.82;100.00;98131.50;2568668;30;137489;-39
2022/04/07 07:22:50;;;;;;;;;;;10.30;99.90;;;8.85;100.00;98139.13;2568757;30;137118;-39
2022/04/07 07:25:17;;;;;;;;;;;10.30;99.90;;;8.84;100.00;98118.47;2567965;30;136648;-39
2022/04/07 07:27:47;;;;;;;;;;;10.30;99.90;;;8.87;100.00;98126.88;2569428;30;137270;-39
2022/04/07 07:30:16;;;;;;;;;;;10.40;99.90;;;8.89;100.00;98092.09;2568840;30;136895;-39
2022/04/07 07:32:45;;;;;;;;;;;10.40;99.90;;;8.90;100.00;98109.22;2569282;30;139055;-39
2022/04/07 07:35:14;;;;;;;;;;;10.40;99.90;;;8.83;100.00;98095.06;2568155;30;137973;-39
2022/04/07 07:37:56;;;;;;;;;;;10.30;99.90;;;8.80;100.00;98082.03;2575067;30;138939;-40
2022/04/07 07:40:25;;;;;;;;;;;10.30;99.90;;;8.76;100.00;98074.41;2568015;30;138571;-38
2022/04/07 07:42:56;;;;;;;;;;;10.30;99.90;;;8.87;100.00;98068.97;2568118;30;138294;-40
2022/04/07 07:45:24;;;;;;;;;;;10.30;99.90;;;8.91;100.00;98068.19;2569173;30;137096;-40
2022/04/07 07:48:12;;;;;;;;;;;10.40;99.90;;;9.03;100.00;98048.91;2570789;30;137287;-40
2022/04/07 07:50:45;;;;;;;;;;;10.40;99.90;;;9.13;100.00;98049.97;2572861;30;136838;-40
2022/04/07 07:53:17;;;;;;;;;;;10.50;99.90;;;9.19;100.00;98047.00;2569598;30;138482;-40
2022/04/07 07:55:46;;;;;;;;;;;10.60;99.90;;;9.21;100.00;98038.56;2568616;30;136804;-40
2022/04/07 07:58:14;;;;;;;;;;;10.60;99.90;;;9.18;100.00;98039.09;2569303;30;139098;-40
2022/04/07 08:00:41;;;;;;;;;;;10.60;99.90;;;9.13;100.00;98041.81;2569970;30;136799;-42
2022/04/07 08:03:09;;;;;;;;;;;10.60;99.90;;;9.00;100.00;98019.50;2570501;30;138245;-40
2022/04/07 08:05:37;;;;;;;;;;;10.50;99.90;;;9.02;100.00;98003.75;2571168;30;136636;-40
2022/04/07 08:08:05;;;;;;;;;;;10.50;99.90;;;9.01;100.00;98006.72;2569955;30;138396;-40
2022/04/07 08:10:32;;;;;;;;;;;10.50;99.90;;;9.12;100.00;98002.09;2568673;30;137195;-41
2022/04/07 08:13:00;;;;;;;;;;;10.50;99.90;;;9.16;100.00;97992.31;2569692;30;138490;-40
2022/04/07 08:15:27;;;;;;;;;;;10.60;99.90;;;9.31;100.00;97988.75;2569477;30;136919;-40
2022/04/07 08:17:55;;;;;;;;;;;10.70;99.90;;;9.48;100.00;97978.41;2567927;30;138288;-40
2022/04/07 08:20:23;;;;;;;;;;;10.80;99.90;;;9.62;100.00;97969.66;2571323;30;137120;-39
2022/04/07 08:22:50;;;;;;;;;;;10.90;99.90;;;9.74;100.00;97970.19;2570072;30;137029;-40
2022/04/07 08:25:18;;;;;;;;;;;11.10;99.90;;;9.91;100.00;97958.13;2571341;30;136998;-40
2022/04/07 08:27:46;;;;;;;;;;;11.20;99.90;;;10.02;100.00;97942.56;2568957;30;139010;-41
2022/04/07 08:30:13;;;;;;;;;;;11.30;99.90;;;10.05;100.00;97942.00;2568751;30;138034;-40
2022/04/07 08:32:41;;;;;;;;;;;11.40;99.90;;;10.06;100.00;97933.56;2567793;30;138994;-40
2022/04/07 08:35:10;;;;;;;;;;;11.40;99.90;;;10.14;100.00;97907.66;2568541;30;137260;-40
2022/04/07 08:37:37;;;;;;;;;;;11.50;99.90;;;10.10;100.00;97901.16;2570764;30;138355;-41
2022/04/07 08:40:07;;;;;;;;;;;11.50;99.90;;;10.10;100.00;97917.50;2569958;30;137066;-40
2022/04/07 08:42:36;;;;;;;;;;;11.60;99.90;;;10.08;100.00;97908.78;2569722;30;136778;-40
2022/04/07 08:45:05;;;;;;;;;;;11.50;99.90;;;10.01;100.00;97900.09;2569141;30;136781;-40
2022/04/07 08:47:37;;;;;;;;;;;11.50;99.90;;;10.07;100.00;97907.13;2568933;30;139171;-40
2022/04/07 08:50:06;;;;;;;;;;;11.50;99.90;;;10.10;100.00;97906.59;2571710;30;137111;-40
2022/04/07 08:52:35;;;;;;;;;;;11.50;99.90;;;10.17;100.00;97882.56;2570019;30;137849;-40
2022/04/07 08:55:03;;;;;;;;;;;11.60;99.90;;;10.20;100.00;97894.78;2570362;30;136885;-40
2022/04/07 08:57:32;;;;;;;;;;;11.60;99.90;;;10.25;100.00;97889.34;2570045;30;139096;-42
2022/04/07 08:59:59;;;;;;;;;;;11.60;99.90;;;10.36;100.00;97898.25;2569043;30;136909;-40
2022/04/07 09:02:27;;;;;;;;;;;11.70;99.90;;;10.41;100.00;97878.34;2569473;30;138940;-40
2022/04/07 09:04:58;;;;;;;;;;;11.80;99.90;;;10.47;100.00;97885.38;2569844;30;137215;-41
2022/04/07 09:07:31;;;;;;;;;;;11.90;99.90;;;10.59;100.00;97906.84;2569509;30;139044;-40
2022/04/07 09:10:00;;;;;;;;;;;12.00;99.90;;;10.73;100.00;97861.47;2569275;30;137193;-40
2022/04/07 09:12:27;;;;;;;;;;;12.10;99.90;;;10.72;100.00;97878.09;2570303;30;138290;-40
2022/04/07 09:14:59;;;;;;;;;;;12.10;99.90;;;10.69;100.00;97884.13;2569319;30;137767;-40
2022/04/07 09:17:31;;;;;;;;;;;12.10;99.90;;;10.68;100.00;97899.69;2569684;30;137702;-40
2022/04/07 09:19:59;;;;;;;;;;;12.10;99.90;;;10.70;100.00;97883.84;2569152;30;137125;-40
2022/04/07 09:22:31;;;;;;;;;;;12.10;99.90;;;10.68;100.00;97887.97;2568962;30;138871;-40
2022/04/07 09:25:04;;;;;;;;;;;12.10;99.90;;;10.50;100.00;97902.00;2566238;30;138022;-40
2022/04/07 09:27:31;;;;;;;;;;;12.00;99.90;;;10.34;100.00;97933.13;2567299;30;138078;-40
2022/04/07 09:30:00;;;;;;;;;;;11.90;99.90;;;10.19;100.00;97937.59;2570239;30;136937;-40
2022/04/07 09:32:28;;;;;;;;;;;11.70;99.90;;;10.00;100.00;97974.72;2568593;30;138538;-39
2022/04/07 09:35:00;;;;;;;;;;;11.60;99.90;;;9.52;100.00;97996.91;2569426;30;136971;-40
2022/04/07 09:37:29;;;;;;;;;;;11.30;99.90;;;9.10;100.00;97994.22;2569319;30;137020;-40
2022/04/07 09:40:02;;;;;;;;;;;10.90;99.90;;;8.60;100.00;98011.00;2569345;30;137116;-40
2022/04/07 09:42:29;;;;;;;;;;;10.40;99.90;;;8.40;100.00;98003.59;2568649;30;139077;-40
2022/04/07 09:44:59;;;;;;;;;;;10.10;99.90;;;8.26;100.00;98005.19;2569971;30;137410;-40
2022/04/07 09:47:46;;;;;;;;;;;9.90;99.90;;;8.21;100.00;97984.25;2570001;30;138396;-40
2022/04/07 09:50:24;;;;;;;;;;;9.80;99.90;;;8.17;100.00;97994.81;2569184;30;136901;-40
2022/04/07 09:53:05;;;;;;;;;;;9.70;99.90;;;8.07;100.00;97989.38;2568429;30;138702;-40
2022/04/07 09:55:40;;;;;;;;;;;9.60;99.90;;;8.04;100.00;97974.41;2568242;30;136941;-40
2022/04/07 09:58:10;;;;;;;;;;;9.60;99.90;;;8.09;100.00;97987.19;2569539;30;138151;-40
2022/04/07 10:00:38;;;;;;;;;;;9.60;99.90;;;8.03;100.00;97986.34;2570415;30;137027;-40
2022/04/07 10:03:08;;;;;;;;;;;9.50;99.90;;;8.03;100.00;97980.13;2567477;30;137666;-40
2022/04/07 10:05:37;;;;;;;;;;;9.50;99.90;;;8.19;100.00;97992.66;2565837;30;138403;-40
2022/04/07 10:08:06;;;;;;;;;;;9.60;99.90;;;8.31;100.00;97992.44;2566763;30;138374;-40
2022/04/07 10:10:35;;;;;;;;;;;9.70;99.90;;;8.34;100.00;97991.88;2570081;30;137804;-40
2022/04/07 10:13:03;;;;;;;;;;;9.70;99.90;;;8.40;100.00;97991.94;2567037;30;138679;-40
2022/04/07 10:15:31;;;;;;;;;;;9.80;99.90;;;8.46;100.00;97983.50;2567584;30;137940;-40
2022/04/07 10:18:05;;;;;;;;;;;9.90;99.90;;;8.61;100.00;97998.25;2567315;30;138124;-40
2022/04/07 10:20:35;;;;;;;;;;;10.00;99.90;;;8.82;100.00;97988.22;2570594;30;137917;-40
2022/04/07 10:23:26;;;;;;;;;;;10.10;99.90;;;8.93;100.00;97972.72;2570229;30;138502;-40
2022/04/07 10:25:56;;;;;;;;;;;10.30;99.90;;;9.03;100.00;97983.63;2567665;30;137352;-40
2022/04/07 10:28:25;;;;;;;;;;;10.40;99.90;;;9.11;100.00;97982.25;2569147;30;138082;-40
2022/04/07 10:30:54;;;;;;;;;;;10.50;99.90;;;9.24;100.00;97972.72;2570502;30;137900;-45
2022/04/07 10:33:43;;;;;;;;;;;10.60;99.90;;;9.41;100.00;97972.41;2569350;30;139215;-40
2022/04/07 10:36:17;;;;;;;;;;;10.70;99.90;;;9.67;100.00;97974.28;2570956;30;136796;-40
2022/04/07 10:38:51;;;;;;;;;;;10.90;99.90;;;10.02;100.00;97953.47;2569650;30;139166;-40
2022/04/07 10:41:38;;;;;;;;;;;11.20;99.90;;;10.13;100.00;97973.31;2569164;30;138220;-40
2022/04/07 10:44:17;;;;;;;;;;;11.40;99.90;;;10.31;100.00;97969.94;2567204;30;137650;-40
2022/04/07 10:46:45;;;;;;;;;;;11.60;99.90;;;10.42;100.00;97964.47;2570008;30;137456;-40
2022/04/07 10:49:22;;;;;;;;;;;11.70;99.90;;;10.46;100.00;97970.97;2571423;30;138932;-41
2022/04/07 10:51:55;;;;;;;;;;;11.80;99.90;;;10.60;98.59;97982.06;2570410;30;136934;-40
2022/04/07 10:54:24;;;;;;;;;;;11.90;99.90;;;10.74;96.99;97988.53;2569881;30;136897;-40
2022/04/07 10:56:53;;;;;;;;;;;12.00;99.90;;;10.81;93.86;97996.41;2569562;30;136958;-41
2022/04/07 10:59:32;;;;;;;;;;;12.10;99.90;;;10.77;85.00;97995.34;2568437;30;138726;-40
2022/04/07 11:02:04;;;;;;;;;;;12.10;99.90;;;10.77;88.47;98006.25;2568799;30;137360;-40
2022/04/07 11:04:42;;;;;;;;;;;12.10;99.90;;;10.82;80.44;98008.13;2569239;30;138398;-40
2022/04/07 11:07:13;;;;;;;;;;;12.20;99.90;;;11.03;84.22;98006.88;2571433;30;136688;-40
2022/04/07 11:09:53;;;;;;;;;;;12.30;99.90;;;11.15;80.29;98022.09;2568156;30;138207;-40
2022/04/07 11:12:24;;;;;;;;;;;12.40;99.90;;;11.31;82.78;98017.31;2570836;30;137078;-40
2022/04/07 11:14:56;;;;;;;;;;;12.60;99.90;;;11.48;80.48;98019.63;2570071;30;138589;-41
2022/04/07 11:17:31;;;;;;;;;;;12.70;99.90;;;11.56;78.69;98019.00;2570990;30;137155;-41
2022/04/07 11:20:05;;;;;;;;;;;12.80;99.90;;;11.68;77.90;98028.72;2568580;30;139049;-41
2022/04/07 11:22:51;;;;;;;;;;;13.00;99.90;;;11.59;77.22;98029.31;2570546;30;136978;-40
2022/04/07 11:25:31;;;;;;;;;;;12.90;99.90;;;11.68;77.05;98036.91;2570278;30;138511;-41